createdAt,value
2023-04-28T00:00:23.551Z,93.20
2023-04-28T00:01:23.539Z,93.20
2023-04-28T00:02:23.562Z,93.20
2023-04-28T00:03:23.645Z,93.20
2023-04-28T00:04:24.045Z,93.20
2023-04-28T00:05:23.630Z,93.30
2023-04-28T00:06:23.472Z,93.30
2023-04-28T00:07:23.451Z,93.30
2023-04-28T00:08:23.439Z,93.20
2023-04-28T00:09:23.422Z,93.30
2023-04-28T00:10:23.436Z,93.40
2023-04-28T00:11:23.408Z,93.71
2023-04-28T00:12:23.392Z,93.92
2023-04-28T00:13:23.370Z,93.92
2023-04-28T00:14:23.371Z,93.92
2023-04-28T00:15:23.349Z,93.92
2023-04-28T00:16:23.365Z,93.92
2023-04-28T00:17:23.477Z,93.82
2023-04-28T00:18:23.462Z,93.71
2023-04-28T00:19:23.302Z,93.71
2023-04-28T00:20:23.289Z,93.71
2023-04-28T00:21:23.268Z,93.86
2023-04-28T00:22:23.253Z,93.76
2023-04-28T00:23:23.251Z,93.76
2023-04-28T00:24:23.254Z,93.86
2023-04-28T00:25:23.220Z,93.96
2023-04-28T00:26:23.242Z,94.07
2023-04-28T00:27:23.195Z,94.02
2023-04-28T00:28:33.438Z,94.23
2023-04-28T00:29:24.186Z,94.33
2023-04-28T00:30:23.147Z,94.23
2023-04-28T00:31:23.168Z,94.02
2023-04-28T00:32:23.152Z,94.12
2023-04-28T00:33:23.109Z,94.07
2023-04-28T00:34:23.097Z,94.17
2023-04-28T00:35:23.087Z,94.17
2023-04-28T00:36:23.085Z,94.17
2023-04-28T00:37:23.087Z,94.27
2023-04-28T00:38:23.050Z,94.27
2023-04-28T00:39:23.063Z,94.27
2023-04-28T00:40:23.029Z,94.27
2023-04-28T00:41:23.003Z,94.27
2023-04-28T00:42:23.011Z,94.17
2023-04-28T00:43:22.974Z,93.86
2023-04-28T00:44:22.969Z,93.76
2023-04-28T00:45:22.966Z,93.96
2023-04-28T00:46:23.046Z,94.02
2023-04-28T00:47:22.917Z,94.12
2023-04-28T00:48:22.904Z,94.23
2023-04-28T00:49:22.898Z,94.33
2023-04-28T00:50:22.882Z,94.33
2023-04-28T00:51:22.881Z,94.23
2023-04-28T00:52:22.861Z,94.02
2023-04-28T00:53:22.843Z,93.92
2023-04-28T00:54:22.828Z,93.92
2023-04-28T00:55:22.818Z,93.92
2023-04-28T00:56:22.809Z,94.02
2023-04-28T00:57:22.795Z,94.23
2023-04-28T00:58:22.808Z,94.33
2023-04-28T00:59:22.760Z,94.02
2023-04-28T01:00:22.754Z,93.92
2023-04-28T01:01:22.819Z,93.92
2023-04-28T01:02:22.819Z,93.82
2023-04-28T01:03:22.878Z,93.71
2023-04-28T01:04:22.885Z,93.92
2023-04-28T01:05:22.698Z,94.02
2023-04-28T01:06:22.676Z,94.02
2023-04-28T01:07:22.681Z,94.12
2023-04-28T01:08:22.641Z,94.33
2023-04-28T01:09:22.642Z,94.43
2023-04-28T01:10:22.638Z,94.43
2023-04-28T01:11:22.623Z,94.39
2023-04-28T01:12:22.597Z,94.18
2023-04-28T01:13:22.595Z,94.18
2023-04-28T01:14:22.596Z,94.18
2023-04-28T01:15:22.559Z,94.18
2023-04-28T01:16:22.618Z,94.12
2023-04-28T01:17:22.539Z,93.92
2023-04-28T01:18:22.520Z,93.82
2023-04-28T01:19:22.511Z,93.71
2023-04-28T01:20:22.488Z,93.82
2023-04-28T01:21:22.481Z,94.02
2023-04-28T01:22:22.471Z,94.12
2023-04-28T01:23:22.444Z,94.12
2023-04-28T01:24:22.433Z,94.23
2023-04-28T01:25:22.420Z,94.33
2023-04-28T01:26:22.411Z,94.43
2023-04-28T01:27:22.395Z,94.54
2023-04-28T01:28:22.382Z,94.43
2023-04-28T01:29:22.377Z,94.43
2023-04-28T01:30:22.385Z,94.33
2023-04-28T01:31:22.342Z,94.33
2023-04-28T01:32:22.350Z,94.37
2023-04-28T01:33:22.310Z,94.33
2023-04-28T01:34:22.310Z,94.48
2023-04-28T01:35:22.299Z,94.64
2023-04-28T01:36:22.285Z,94.74
2023-04-28T01:37:22.270Z,94.84
2023-04-28T01:38:22.247Z,94.74
2023-04-28T01:39:22.240Z,94.74
2023-04-28T01:40:22.221Z,94.74
2023-04-28T01:41:22.217Z,94.54
2023-04-28T01:42:22.195Z,94.43
2023-04-28T01:43:22.191Z,94.33
2023-04-28T01:44:22.170Z,94.54
2023-04-28T01:45:22.171Z,94.64
2023-04-28T01:46:22.224Z,94.58
2023-04-28T01:47:22.135Z,94.58
2023-04-28T01:48:22.134Z,94.68
2023-04-28T01:49:22.109Z,94.68
2023-04-28T01:50:22.089Z,94.68
2023-04-28T01:51:22.076Z,94.89
2023-04-28T01:52:22.073Z,94.99
2023-04-28T01:53:22.062Z,95.09
2023-04-28T01:54:22.063Z,95.20
2023-04-28T01:55:22.029Z,95.20
2023-04-28T01:56:22.029Z,95.30
2023-04-28T01:57:22.485Z,95.36
2023-04-28T01:58:21.987Z,95.46
2023-04-28T01:59:21.972Z,95.15
2023-04-28T02:00:21.974Z,94.95
2023-04-28T02:01:22.018Z,94.84
2023-04-28T02:02:22.072Z,94.84
2023-04-28T02:03:22.138Z,94.99
2023-04-28T02:04:21.957Z,95.20
2023-04-28T02:05:21.892Z,95.36
2023-04-28T02:06:21.881Z,95.30
2023-04-28T02:07:21.879Z,95.20
2023-04-28T02:08:21.888Z,95.30
2023-04-28T02:09:21.838Z,95.50
2023-04-28T02:10:21.826Z,95.46
2023-04-28T02:11:21.809Z,95.50
2023-04-28T02:12:21.798Z,95.40
2023-04-28T02:13:21.808Z,95.40
2023-04-28T02:14:21.781Z,95.36
2023-04-28T02:15:21.767Z,95.09
2023-04-28T02:16:21.808Z,95.09
2023-04-28T02:17:21.738Z,95.09
2023-04-28T02:18:21.751Z,94.78
2023-04-28T02:19:21.705Z,95.09
2023-04-28T02:20:21.692Z,95.30
2023-04-28T02:21:21.684Z,95.50
2023-04-28T02:22:21.667Z,95.61
2023-04-28T02:23:21.649Z,95.92
2023-04-28T02:24:21.654Z,96.12
2023-04-28T02:25:21.622Z,96.43
2023-04-28T02:26:21.616Z,96.59
2023-04-28T02:27:21.607Z,96.80
2023-04-28T02:28:21.584Z,96.90
2023-04-28T02:29:21.580Z,96.90
2023-04-28T02:30:21.561Z,96.90
2023-04-28T02:31:21.631Z,96.80
2023-04-28T02:32:21.538Z,96.90
2023-04-28T02:33:21.525Z,96.90
2023-04-28T02:34:21.526Z,97.00
2023-04-28T02:35:21.490Z,96.90
2023-04-28T02:36:21.476Z,96.69
2023-04-28T02:37:21.463Z,97.00
2023-04-28T02:38:21.462Z,97.10
2023-04-28T02:39:21.445Z,97.20
2023-04-28T02:40:21.428Z,97.41
2023-04-28T02:41:21.412Z,97.72
2023-04-28T02:42:21.402Z,97.92
2023-04-28T02:43:21.389Z,98.24
2023-04-28T02:44:21.380Z,98.54
2023-04-28T02:45:21.382Z,98.75
2023-04-28T02:46:21.368Z,99.05
2023-04-28T02:47:21.333Z,99.26
2023-04-28T02:48:21.318Z,99.47
2023-04-28T02:49:21.310Z,99.67
2023-04-28T02:50:21.355Z,99.77
2023-04-28T02:51:21.278Z,99.99
2023-04-28T02:52:21.274Z,99.99
2023-04-28T02:53:21.282Z,99.99
2023-04-28T02:54:21.240Z,99.99
2023-04-28T02:55:21.228Z,99.99
2023-04-28T02:56:21.212Z,99.99
2023-04-28T02:57:21.220Z,99.99
2023-04-28T02:58:21.196Z,99.99
2023-04-28T02:59:21.175Z,99.99
2023-04-28T03:00:21.173Z,99.99
2023-04-28T03:01:21.202Z,99.99
2023-04-28T03:02:21.166Z,99.99
2023-04-28T03:03:21.217Z,99.99
2023-04-28T03:04:21.544Z,99.99
2023-04-28T03:05:21.116Z,99.99
2023-04-28T03:06:21.110Z,99.99
2023-04-28T03:07:21.067Z,99.99
2023-04-28T03:08:21.050Z,99.99
2023-04-28T03:09:21.045Z,99.99
2023-04-28T03:10:21.041Z,99.99
2023-04-28T03:11:21.018Z,99.99
2023-04-28T03:12:21.010Z,99.99
2023-04-28T03:13:20.996Z,99.99
2023-04-28T03:14:20.973Z,99.99
2023-04-28T03:15:20.962Z,99.99
2023-04-28T03:16:20.986Z,99.99
2023-04-28T03:17:21.019Z,99.99
2023-04-28T03:18:20.920Z,99.99
2023-04-28T03:19:20.916Z,99.99
2023-04-28T03:20:20.911Z,99.99
2023-04-28T03:21:20.881Z,99.99
2023-04-28T03:22:20.909Z,99.99
2023-04-28T03:23:20.853Z,99.99
2023-04-28T03:24:20.854Z,99.99
2023-04-28T03:25:20.832Z,99.99
2023-04-28T03:26:20.826Z,99.99
2023-04-28T03:27:20.825Z,99.99
2023-04-28T03:28:20.790Z,99.99
2023-04-28T03:29:20.786Z,99.99
2023-04-28T03:30:20.772Z,99.99
2023-04-28T03:31:20.782Z,99.99
2023-04-28T03:32:20.789Z,99.99
2023-04-28T03:33:20.754Z,99.99
2023-04-28T03:34:20.716Z,99.99
2023-04-28T03:35:20.712Z,99.99
2023-04-28T03:36:20.684Z,99.99
2023-04-28T03:37:20.674Z,99.99
2023-04-28T03:38:20.679Z,99.99
2023-04-28T03:39:20.645Z,99.99
2023-04-28T03:40:20.627Z,99.99
2023-04-28T03:41:20.625Z,99.99
2023-04-28T03:42:20.600Z,99.99
2023-04-28T03:43:20.599Z,99.99
2023-04-28T03:44:20.577Z,99.99
2023-04-28T03:45:20.563Z,99.99
2023-04-28T03:46:20.660Z,99.99
2023-04-28T03:47:20.542Z,99.99
2023-04-28T03:48:20.599Z,99.99
2023-04-28T03:49:20.519Z,99.99
2023-04-28T03:50:20.517Z,99.99
2023-04-28T03:51:20.482Z,99.99
2023-04-28T03:52:20.473Z,99.99
2023-04-28T03:53:20.464Z,99.99
2023-04-28T03:54:20.470Z,99.99
2023-04-28T03:55:20.443Z,99.99
2023-04-28T03:56:20.434Z,99.99
2023-04-28T03:57:20.410Z,99.99
2023-04-28T03:58:20.398Z,99.99
2023-04-28T03:59:20.389Z,99.99
2023-04-28T04:00:20.390Z,99.99
2023-04-28T04:01:20.361Z,99.99
2023-04-28T04:02:20.455Z,99.99
2023-04-28T04:03:20.482Z,99.99
2023-04-28T04:04:20.800Z,99.99
2023-04-28T04:05:20.387Z,99.99
2023-04-28T04:06:20.289Z,99.99
2023-04-28T04:07:20.284Z,99.99
2023-04-28T04:08:20.267Z,99.99
2023-04-28T04:09:20.256Z,99.99
2023-04-28T04:10:20.257Z,99.99
2023-04-28T04:11:20.226Z,99.99
2023-04-28T04:12:20.209Z,99.99
2023-04-28T04:13:20.194Z,99.99
2023-04-28T04:14:20.180Z,99.99
2023-04-28T04:15:20.174Z,99.99
2023-04-28T04:16:20.178Z,99.99
2023-04-28T04:17:20.144Z,99.99
2023-04-28T04:18:20.130Z,99.99
2023-04-28T04:19:20.123Z,99.99
2023-04-28T04:20:20.114Z,99.99
2023-04-28T04:21:20.110Z,99.99
2023-04-28T04:22:20.079Z,99.99
2023-04-28T04:23:20.058Z,99.99
2023-04-28T04:24:20.054Z,99.99
2023-04-28T04:25:22.051Z,99.99
2023-04-28T04:26:20.046Z,99.99
2023-04-28T04:27:20.012Z,99.99
2023-04-28T04:28:20.005Z,99.99
2023-04-28T04:29:19.990Z,99.99
2023-04-28T04:30:19.976Z,99.99
2023-04-28T04:31:20.027Z,99.99
2023-04-28T04:32:19.963Z,99.99
2023-04-28T04:33:19.930Z,99.99
2023-04-28T04:34:19.920Z,99.99
2023-04-28T04:35:19.963Z,99.99
2023-04-28T04:36:19.898Z,99.99
2023-04-28T04:37:19.886Z,99.99
2023-04-28T04:38:19.888Z,99.99
2023-04-28T04:39:19.871Z,99.99
2023-04-28T04:40:19.846Z,99.99
2023-04-28T04:41:19.844Z,99.99
2023-04-28T04:42:25.518Z,99.99
2023-04-28T04:43:20.856Z,99.99
2023-04-28T04:44:20.174Z,99.99
2023-04-28T04:45:19.796Z,99.99
2023-04-28T04:46:19.831Z,99.99
2023-04-28T04:47:19.741Z,99.99
2023-04-28T04:48:19.736Z,99.99
2023-04-28T04:49:19.721Z,99.99
2023-04-28T04:50:19.701Z,99.99
2023-04-28T04:51:19.693Z,99.99
2023-04-28T04:52:19.702Z,99.99
2023-04-28T04:53:19.687Z,99.99
2023-04-28T04:54:19.657Z,99.99
2023-04-28T04:55:19.648Z,99.99
2023-04-28T04:56:19.633Z,99.99
2023-04-28T04:57:19.643Z,99.99
2023-04-28T04:58:19.629Z,99.99
2023-04-28T04:59:19.595Z,99.99
2023-04-28T05:00:19.578Z,99.99
2023-04-28T05:01:19.603Z,99.99
2023-04-28T05:02:19.820Z,99.99
2023-04-28T05:03:19.673Z,99.99
2023-04-28T05:04:19.782Z,99.99
2023-04-28T05:05:21.218Z,99.99
2023-04-28T05:06:19.502Z,99.99
2023-04-28T05:07:19.490Z,99.99
2023-04-28T05:08:19.469Z,99.99
2023-04-28T05:09:19.459Z,99.99
2023-04-28T05:10:19.481Z,99.99
2023-04-28T05:11:19.425Z,99.99
2023-04-28T05:12:19.428Z,99.99
2023-04-28T05:13:19.408Z,99.99
2023-04-28T05:14:19.515Z,99.99
2023-04-28T05:15:19.376Z,99.99
2023-04-28T05:16:19.425Z,99.99
2023-04-28T05:17:19.364Z,99.99
2023-04-28T05:18:19.343Z,99.99
2023-04-28T05:19:19.327Z,99.99
2023-04-28T05:20:19.314Z,99.99
2023-04-28T05:21:19.308Z,99.99
2023-04-28T05:22:19.301Z,99.99
2023-04-28T05:23:19.273Z,99.99
2023-04-28T05:24:19.263Z,99.99
2023-04-28T05:25:19.258Z,99.99
2023-04-28T05:26:19.232Z,99.99
2023-04-28T05:27:19.229Z,99.99
2023-04-28T05:28:21.833Z,99.99
2023-04-28T05:29:19.211Z,99.99
2023-04-28T05:30:19.217Z,99.99
2023-04-28T05:31:19.221Z,99.99
2023-04-28T05:32:19.245Z,99.99
2023-04-28T05:33:19.151Z,99.99
2023-04-28T05:34:19.359Z,99.99
2023-04-28T05:35:19.128Z,99.99
2023-04-28T05:36:19.103Z,99.99
2023-04-28T05:37:19.097Z,99.99
2023-04-28T05:38:20.202Z,99.99
2023-04-28T05:39:19.092Z,99.99
2023-04-28T05:40:19.062Z,99.99
2023-04-28T05:41:19.048Z,99.99
2023-04-28T05:42:19.035Z,99.99
2023-04-28T05:43:19.018Z,99.99
2023-04-28T05:44:18.998Z,99.99
2023-04-28T05:45:18.988Z,99.99
2023-04-28T05:46:29.954Z,99.99
2023-04-28T05:47:19.994Z,99.99
2023-04-28T05:48:18.962Z,99.99
2023-04-28T05:49:18.950Z,99.99
2023-04-28T05:50:18.943Z,99.99
2023-04-28T05:51:18.914Z,99.99
2023-04-28T05:52:18.892Z,99.99
2023-04-28T05:53:18.885Z,99.99
2023-04-28T05:54:19.277Z,99.99
2023-04-28T05:55:18.872Z,99.99
2023-04-28T05:56:18.855Z,99.99
2023-04-28T05:57:18.875Z,99.99
2023-04-28T05:58:18.858Z,99.99
2023-04-28T05:59:18.976Z,99.99
2023-04-28T06:00:18.791Z,99.99
2023-04-28T06:01:18.791Z,99.99
2023-04-28T06:02:20.579Z,99.99
2023-04-28T06:03:18.976Z,99.99
2023-04-28T06:04:19.183Z,99.99
2023-04-28T06:05:19.134Z,99.99
2023-04-28T06:06:18.951Z,99.99
2023-04-28T06:07:18.711Z,99.99
2023-04-28T06:08:18.694Z,99.99
2023-04-28T06:09:18.977Z,99.99
2023-04-28T06:10:18.664Z,99.99
2023-04-28T06:11:18.673Z,99.99
2023-04-28T06:12:18.653Z,99.99
2023-04-28T06:13:18.633Z,99.99
2023-04-28T06:14:19.030Z,99.99
2023-04-28T06:15:18.611Z,99.99
2023-04-28T06:16:18.651Z,99.99
2023-04-28T06:17:18.594Z,99.99
2023-04-28T06:18:18.583Z,99.99
2023-04-28T06:19:18.565Z,99.99
2023-04-28T06:20:18.527Z,99.99
2023-04-28T06:21:18.539Z,99.99
2023-04-28T06:22:18.500Z,99.99
2023-04-28T06:23:18.514Z,99.99
2023-04-28T06:24:18.800Z,99.99
2023-04-28T06:25:18.468Z,99.99
2023-04-28T06:26:18.778Z,99.99
2023-04-28T06:27:18.450Z,99.99
2023-04-28T06:28:18.436Z,99.99
2023-04-28T06:29:18.440Z,99.99
2023-04-28T06:30:18.410Z,99.99
2023-04-28T06:31:18.433Z,99.99
2023-04-28T06:32:18.415Z,99.99
2023-04-28T06:33:18.375Z,99.99
2023-04-28T06:34:18.648Z,99.99
2023-04-28T06:35:18.344Z,99.99
2023-04-28T06:36:18.365Z,99.99
2023-04-28T06:37:18.309Z,99.99
2023-04-28T06:38:18.327Z,99.99
2023-04-28T06:39:18.292Z,99.99
2023-04-28T06:40:18.294Z,99.99
2023-04-28T06:41:18.256Z,99.99
2023-04-28T06:42:18.270Z,99.99
2023-04-28T06:43:18.242Z,99.99
2023-04-28T06:44:18.584Z,99.99
2023-04-28T06:45:18.223Z,99.99
2023-04-28T06:46:18.235Z,99.99
2023-04-28T06:47:18.206Z,99.99
2023-04-28T06:48:18.176Z,99.99
2023-04-28T06:49:18.170Z,99.99
2023-04-28T06:50:18.172Z,99.99
2023-04-28T06:51:18.151Z,99.99
2023-04-28T06:52:18.131Z,99.99
2023-04-28T06:53:18.109Z,99.99
2023-04-28T06:54:18.652Z,99.99
2023-04-28T06:55:18.074Z,99.99
2023-04-28T06:56:18.069Z,99.99
2023-04-28T06:57:18.050Z,99.99
2023-04-28T06:58:18.057Z,99.99
2023-04-28T06:59:18.030Z,99.99
2023-04-28T07:00:18.022Z,99.99
2023-04-28T07:01:18.037Z,99.99
2023-04-28T07:02:18.148Z,99.99
2023-04-28T07:03:18.106Z,99.99
2023-04-28T07:04:18.485Z,99.99
2023-04-28T07:05:17.965Z,99.99
2023-04-28T07:06:18.063Z,99.99
2023-04-28T07:07:17.920Z,99.99
2023-04-28T07:08:17.918Z,99.99
2023-04-28T07:09:17.905Z,99.99
2023-04-28T07:10:17.877Z,99.99
2023-04-28T07:11:17.879Z,99.99
2023-04-28T07:12:17.855Z,99.99
2023-04-28T07:13:17.852Z,99.99
2023-04-28T07:14:18.250Z,99.99
2023-04-28T07:15:17.814Z,99.99
2023-04-28T07:16:17.863Z,99.99
2023-04-28T07:17:17.794Z,99.99
2023-04-28T07:18:17.785Z,99.99
2023-04-28T07:19:17.774Z,99.99
2023-04-28T07:20:17.768Z,99.99
2023-04-28T07:21:17.765Z,99.99
2023-04-28T07:22:17.818Z,99.99
2023-04-28T07:23:17.715Z,99.99
2023-04-28T07:24:18.095Z,99.99
2023-04-28T07:25:17.688Z,99.99
2023-04-28T07:26:17.697Z,99.99
2023-04-28T07:27:17.679Z,99.99
2023-04-28T07:28:17.649Z,99.99
2023-04-28T07:29:17.785Z,99.99
2023-04-28T07:30:27.408Z,99.99
2023-04-28T07:31:18.770Z,99.99
2023-04-28T07:32:17.990Z,99.99
2023-04-28T07:33:17.597Z,99.99
2023-04-28T07:34:18.006Z,99.99
2023-04-28T07:35:17.619Z,99.99
2023-04-28T07:36:17.657Z,99.99
2023-04-28T07:37:17.535Z,99.99
2023-04-28T07:38:17.562Z,99.99
2023-04-28T07:39:17.518Z,99.99
2023-04-28T07:40:17.504Z,99.99
2023-04-28T07:41:17.493Z,99.99
2023-04-28T07:42:17.481Z,99.99
2023-04-28T07:43:17.455Z,99.99
2023-04-28T07:44:17.661Z,99.99
2023-04-28T07:45:17.436Z,99.99
2023-04-28T07:46:17.463Z,99.99
2023-04-28T07:47:17.403Z,99.99
2023-04-28T07:48:17.481Z,99.99
2023-04-28T07:49:17.378Z,99.99
2023-04-28T07:50:17.361Z,99.99
2023-04-28T07:51:17.357Z,99.99
2023-04-28T07:52:17.360Z,99.99
2023-04-28T07:53:17.339Z,99.99
2023-04-28T07:54:17.547Z,99.99
2023-04-28T07:55:17.336Z,99.99
2023-04-28T07:56:17.289Z,99.99
2023-04-28T07:57:17.272Z,99.99
2023-04-28T07:58:17.258Z,99.99
2023-04-28T07:59:17.262Z,99.99
2023-04-28T08:00:17.231Z,99.99
2023-04-28T08:01:17.223Z,99.99
2023-04-28T08:02:17.256Z,99.99
2023-04-28T08:03:17.348Z,99.99
2023-04-28T08:04:17.664Z,99.99
2023-04-28T08:05:17.378Z,99.99
2023-04-28T08:06:17.155Z,99.99
2023-04-28T08:07:17.159Z,99.99
2023-04-28T08:08:17.141Z,99.99
2023-04-28T08:09:17.123Z,99.99
2023-04-28T08:10:17.355Z,99.99
2023-04-28T08:11:17.095Z,99.99
2023-04-28T08:12:17.086Z,99.99
2023-04-28T08:13:17.074Z,99.99
2023-04-28T08:14:17.416Z,99.99
2023-04-28T08:15:18.370Z,99.99
2023-04-28T08:16:17.073Z,99.99
2023-04-28T08:17:17.014Z,99.99
2023-04-28T08:18:17.040Z,99.99
2023-04-28T08:19:16.983Z,99.99
2023-04-28T08:20:16.983Z,99.99
2023-04-28T08:21:16.956Z,99.99
2023-04-28T08:22:16.953Z,99.99
2023-04-28T08:23:16.944Z,99.99
2023-04-28T08:24:17.121Z,99.99
2023-04-28T08:25:16.926Z,99.99
2023-04-28T08:26:16.946Z,99.99
2023-04-28T08:27:16.885Z,99.99
2023-04-28T08:28:16.885Z,99.99
2023-04-28T08:29:16.848Z,99.99
2023-04-28T08:30:16.851Z,99.99
2023-04-28T08:31:16.884Z,99.99
2023-04-28T08:32:16.845Z,99.99
2023-04-28T08:33:16.851Z,99.99
2023-04-28T08:34:17.036Z,99.99
2023-04-28T08:35:16.766Z,99.99
2023-04-28T08:36:16.762Z,99.99
2023-04-28T08:37:16.747Z,99.99
2023-04-28T08:38:16.733Z,99.99
2023-04-28T08:39:16.726Z,99.99
2023-04-28T08:40:16.726Z,99.99
2023-04-28T08:41:16.736Z,99.99
2023-04-28T08:42:16.721Z,99.99
2023-04-28T08:43:16.673Z,99.99
2023-04-28T08:44:16.864Z,99.99
2023-04-28T08:45:16.653Z,99.99
2023-04-28T08:46:16.646Z,99.99
2023-04-28T08:47:16.621Z,99.99
2023-04-28T08:48:16.595Z,99.99
2023-04-28T08:49:16.588Z,99.99
2023-04-28T08:50:16.594Z,99.99
2023-04-28T08:51:16.577Z,99.99
2023-04-28T08:52:16.569Z,99.99
2023-04-28T08:53:16.542Z,99.99
2023-04-28T08:54:29.767Z,99.99
2023-04-28T08:55:17.549Z,99.99
2023-04-28T08:56:16.522Z,99.99
2023-04-28T08:57:16.496Z,99.99
2023-04-28T08:58:16.496Z,99.99
2023-04-28T08:59:16.482Z,99.99
2023-04-28T09:00:16.439Z,99.99
2023-04-28T09:01:16.450Z,99.99
2023-04-28T09:02:16.481Z,99.99
2023-04-28T09:03:16.503Z,99.99
2023-04-28T09:04:16.624Z,99.99
2023-04-28T09:05:16.616Z,99.99
2023-04-28T09:06:16.384Z,99.99
2023-04-28T09:07:16.412Z,99.99
2023-04-28T09:08:16.355Z,99.99
2023-04-28T09:09:16.351Z,99.99
2023-04-28T09:10:16.327Z,99.99
2023-04-28T09:11:16.324Z,99.99
2023-04-28T09:12:16.289Z,99.99
2023-04-28T09:13:16.273Z,99.99
2023-04-28T09:14:16.453Z,99.99
2023-04-28T09:15:16.254Z,99.99
2023-04-28T09:16:16.256Z,99.99
2023-04-28T09:17:16.228Z,99.99
2023-04-28T09:18:16.212Z,99.99
2023-04-28T09:19:16.200Z,99.99
2023-04-28T09:20:16.189Z,99.99
2023-04-28T09:21:16.169Z,99.99
2023-04-28T09:22:26.066Z,99.99
2023-04-28T09:23:17.176Z,99.99
2023-04-28T09:24:16.419Z,99.99
2023-04-28T09:25:16.114Z,99.99
2023-04-28T09:26:16.128Z,99.99
2023-04-28T09:27:16.122Z,99.99
2023-04-28T09:28:16.104Z,99.99
2023-04-28T09:29:16.079Z,99.99
2023-04-28T09:30:16.092Z,99.99
2023-04-28T09:31:16.048Z,99.99
2023-04-28T09:32:16.139Z,99.99
2023-04-28T09:33:16.078Z,99.99
2023-04-28T09:34:16.312Z,99.99
2023-04-28T09:35:16.003Z,99.99
2023-04-28T09:36:15.986Z,99.99
2023-04-28T09:37:15.993Z,99.99
2023-04-28T09:38:15.961Z,99.99
2023-04-28T09:39:15.940Z,99.99
2023-04-28T09:40:15.931Z,99.99
2023-04-28T09:41:15.924Z,99.99
2023-04-28T09:42:15.938Z,99.99
2023-04-28T09:43:21.485Z,99.99
2023-04-28T09:44:17.352Z,99.99
2023-04-28T09:45:15.860Z,99.99
2023-04-28T09:46:15.890Z,99.99
2023-04-28T09:47:15.835Z,99.99
2023-04-28T09:48:15.864Z,99.99
2023-04-28T09:49:15.806Z,99.99
2023-04-28T09:50:15.880Z,99.99
2023-04-28T09:51:15.781Z,99.99
2023-04-28T09:52:15.764Z,99.99
2023-04-28T09:53:15.752Z,99.99
2023-04-28T09:54:15.746Z,99.99
2023-04-28T09:55:15.733Z,99.99
2023-04-28T09:56:15.712Z,99.99
2023-04-28T09:57:15.697Z,99.99
2023-04-28T09:58:15.703Z,99.99
2023-04-28T09:59:15.691Z,99.99
2023-04-28T10:00:15.718Z,99.99
2023-04-28T10:01:15.667Z,99.99
2023-04-28T10:02:40.993Z,99.99
2023-04-28T10:03:16.745Z,99.99
2023-04-28T10:04:15.747Z,99.99
2023-04-28T10:05:15.866Z,99.99
2023-04-28T10:06:15.605Z,99.99
2023-04-28T10:07:15.575Z,99.99
2023-04-28T10:08:15.554Z,99.99
2023-04-28T10:09:15.543Z,99.99
2023-04-28T10:10:15.646Z,99.99
2023-04-28T10:11:15.515Z,99.99
2023-04-28T10:12:15.498Z,99.99
2023-04-28T10:13:15.496Z,99.99
2023-04-28T10:14:15.523Z,99.99
2023-04-28T10:15:15.499Z,99.99
2023-04-28T10:16:15.497Z,99.99
2023-04-28T10:17:15.436Z,99.99
2023-04-28T10:18:15.440Z,99.99
2023-04-28T10:19:15.405Z,99.99
2023-04-28T10:20:15.400Z,99.99
2023-04-28T10:21:15.397Z,99.99
2023-04-28T10:22:15.376Z,99.99
2023-04-28T10:23:15.354Z,99.99
2023-04-28T10:24:15.357Z,99.99
2023-04-28T10:25:15.325Z,99.99
2023-04-28T10:26:15.319Z,99.99
2023-04-28T10:27:15.326Z,99.99
2023-04-28T10:28:15.306Z,99.99
2023-04-28T10:29:15.286Z,99.99
2023-04-28T10:30:26.289Z,99.99
2023-04-28T10:31:16.323Z,99.99
2023-04-28T10:32:15.263Z,99.99
2023-04-28T10:33:15.253Z,99.99
2023-04-28T10:34:15.283Z,99.99
2023-04-28T10:35:15.257Z,99.99
2023-04-28T10:36:17.730Z,99.99
2023-04-28T10:37:15.187Z,99.99
2023-04-28T10:38:15.204Z,99.99
2023-04-28T10:39:15.247Z,99.99
2023-04-28T10:40:15.154Z,99.99
2023-04-28T10:41:15.136Z,99.99
2023-04-28T10:42:15.108Z,99.99
2023-04-28T10:43:15.093Z,99.99
2023-04-28T10:44:15.085Z,99.99
2023-04-28T10:45:15.088Z,99.99
2023-04-28T10:46:15.120Z,99.99
2023-04-28T10:47:15.044Z,99.99
2023-04-28T10:48:15.044Z,99.99
2023-04-28T10:49:15.036Z,99.99
2023-04-28T10:50:15.047Z,99.99
2023-04-28T10:51:14.990Z,99.99
2023-04-28T10:52:14.992Z,99.99
2023-04-28T10:53:14.983Z,99.99
2023-04-28T10:54:14.957Z,99.99
2023-04-28T10:55:22.198Z,99.99
2023-04-28T10:56:15.953Z,99.99
2023-04-28T10:57:14.927Z,99.99
2023-04-28T10:58:14.899Z,99.99
2023-04-28T10:59:14.904Z,99.99
2023-04-28T11:00:14.895Z,99.99
2023-04-28T11:01:15.016Z,99.99
2023-04-28T11:02:14.940Z,99.99
2023-04-28T11:03:14.956Z,99.99
2023-04-28T11:04:14.994Z,99.99
2023-04-28T11:05:14.910Z,99.99
2023-04-28T11:06:14.828Z,99.99
2023-04-28T11:07:14.782Z,99.99
2023-04-28T11:08:14.768Z,99.99
2023-04-28T11:09:14.857Z,99.99
2023-04-28T11:10:14.746Z,99.99
2023-04-28T11:11:14.733Z,99.99
2023-04-28T11:12:14.711Z,99.99
2023-04-28T11:13:14.705Z,99.99
2023-04-28T11:14:14.699Z,99.99
2023-04-28T11:15:14.692Z,99.99
2023-04-28T11:16:14.698Z,99.99
2023-04-28T11:17:14.657Z,99.99
2023-04-28T11:18:14.633Z,99.99
2023-04-28T11:19:14.630Z,99.99
2023-04-28T11:20:14.613Z,99.99
2023-04-28T11:21:14.592Z,99.99
2023-04-28T11:22:14.610Z,99.99
2023-04-28T11:23:14.593Z,99.99
2023-04-28T11:24:14.571Z,99.99
2023-04-28T11:25:14.544Z,99.99
2023-04-28T11:26:14.540Z,99.99
2023-04-28T11:27:14.519Z,99.99
2023-04-28T11:28:14.505Z,99.99
2023-04-28T11:29:14.505Z,99.99
2023-04-28T11:30:14.497Z,99.99
2023-04-28T11:31:14.504Z,99.99
2023-04-28T11:32:14.593Z,99.99
2023-04-28T11:33:14.488Z,99.99
2023-04-28T11:34:14.451Z,99.99
2023-04-28T11:35:14.413Z,99.99
2023-04-28T11:36:14.408Z,99.99
2023-04-28T11:37:14.534Z,99.99
2023-04-28T11:38:14.401Z,99.99
2023-04-28T11:39:14.360Z,99.99
2023-04-28T11:40:14.351Z,99.99
2023-04-28T11:41:14.330Z,99.99
2023-04-28T11:42:14.328Z,99.99
2023-04-28T11:43:14.314Z,99.99
2023-04-28T11:44:14.296Z,99.99
2023-04-28T11:45:14.307Z,99.99
2023-04-28T11:46:14.339Z,99.99
2023-04-28T11:47:14.252Z,99.99
2023-04-28T11:48:14.249Z,99.99
2023-04-28T11:49:14.244Z,99.99
2023-04-28T11:50:14.231Z,99.99
2023-04-28T11:51:14.212Z,99.99
2023-04-28T11:52:14.200Z,99.99
2023-04-28T11:53:14.174Z,99.99
2023-04-28T11:54:14.186Z,99.99
2023-04-28T11:55:14.170Z,99.99
2023-04-28T11:56:14.141Z,99.99
2023-04-28T11:57:14.137Z,99.99
2023-04-28T11:58:14.128Z,99.99
2023-04-28T11:59:14.120Z,99.99
2023-04-28T12:00:14.098Z,99.99
2023-04-28T12:01:14.087Z,99.99
2023-04-28T12:02:14.116Z,99.99
2023-04-28T12:03:14.200Z,99.99
2023-04-28T12:04:14.169Z,99.94
2023-04-28T12:05:14.104Z,99.99
2023-04-28T12:06:14.024Z,99.99
2023-04-28T12:07:14.004Z,99.99
2023-04-28T12:08:13.995Z,99.99
2023-04-28T12:09:13.979Z,99.65
2023-04-28T12:10:14.202Z,98.79
2023-04-28T12:11:14.009Z,97.67
2023-04-28T12:12:13.937Z,97.17
2023-04-28T12:13:13.933Z,96.00
2023-04-28T12:14:13.916Z,96.41
2023-04-28T12:15:13.920Z,97.17
2023-04-28T12:16:13.952Z,97.58
2023-04-28T12:17:13.880Z,97.67
2023-04-28T12:18:13.867Z,97.43
2023-04-28T12:19:13.849Z,96.62
2023-04-28T12:20:13.846Z,95.91
2023-04-28T12:21:13.816Z,95.91
2023-04-28T12:22:13.811Z,94.79
2023-04-28T12:23:13.802Z,94.29
2023-04-28T12:24:13.789Z,94.85
2023-04-28T12:25:13.786Z,94.65
2023-04-28T12:26:13.877Z,94.35
2023-04-28T12:27:13.751Z,93.63
2023-04-28T12:28:13.745Z,93.13
2023-04-28T12:29:13.731Z,93.39
2023-04-28T12:30:13.712Z,93.70
2023-04-28T12:31:13.752Z,93.49
2023-04-28T12:32:13.686Z,93.79
2023-04-28T12:33:13.673Z,93.29
2023-04-28T12:34:13.663Z,93.59
2023-04-28T12:35:13.651Z,93.55
2023-04-28T12:36:13.632Z,92.64
2023-04-28T12:37:13.759Z,91.02
2023-04-28T12:38:13.603Z,91.38
2023-04-28T12:39:13.591Z,91.44
2023-04-28T12:40:13.585Z,88.92
2023-04-28T12:41:13.561Z,87.90
2023-04-28T12:42:13.583Z,89.01
2023-04-28T12:43:13.550Z,90.03
2023-04-28T12:44:13.530Z,91.34
2023-04-28T12:45:13.529Z,92.76
2023-04-28T12:46:13.566Z,91.94
2023-04-28T12:47:13.480Z,91.54
2023-04-28T12:48:13.475Z,91.03
2023-04-28T12:49:13.465Z,89.83
2023-04-28T12:50:13.449Z,92.05
2023-04-28T12:51:13.438Z,92.14
2023-04-28T12:52:13.442Z,92.65